Time,TemperatureF,DewpointF,PressureIn,WindDirection,WindDirectionDegrees,WindSpeedMPH,WindSpeedGustMPH,Humidity,HourlyPrecipIn,Conditions,Clouds,dailyrainin,SoftwareType,DateUTC
2013-04-07 00:00:00,24.4,4.9,30.29,WSW,247,0.0,0.0,43,0.00,,,0.00,WUHU21623XXSP,2013-04-07 04:00:00,
2013-04-07 00:01:00,24.4,4.9,30.29,WSW,247,0.0,0.0,43,0.00,,,0.00,WUHU21623XXSP,2013-04-07 04:01:00,
2013-04-07 00:06:00,24.3,5.4,30.29,WSW,247,0.0,0.0,44,0.00,,,0.00,WUHU21623XXSP,2013-04-07 04:06:00,
2013-04-07 00:12:00,24.4,6.0,30.29,WSW,247,0.0,0.0,45,0.00,,,0.00,WUHU21623XXSP,2013-04-07 04:12:00,
2013-04-07 00:17:00,24.4,6.0,30.30,WSW,247,0.0,0.0,45,0.00,,,0.00,WUHU21623XXSP,2013-04-07 04:17:00,
2013-04-07 00:22:00,24.6,6.6,30.29,WSW,247,0.0,0.0,46,0.00,,,0.00,WUHU21623XXSP,2013-04-07 04:22:00,
2013-04-07 00:27:00,25.0,7.0,30.29,WSW,247,0.0,0.0,46,0.00,,,0.00,WUHU21623XXSP,2013-04-07 04:27:00,
2013-04-07 00:32:00,25.0,7.0,30.29,WSW,247,0.0,0.0,46,0.00,,,0.00,WUHU21623XXSP,2013-04-07 04:32:00,
2013-04-07 00:37:00,25.0,7.0,30.29,WSW,247,0.0,0.0,46,0.00,,,0.00,WUHU21623XXSP,2013-04-07 04:37:00,
2013-04-07 00:42:00,25.0,7.0,30.29,WSW,247,0.0,0.0,46,0.00,,,0.00,WUHU21623XXSP,2013-04-07 04:42:00,
2013-04-07 00:47:00,25.2,7.7,30.29,WSW,247,0.0,0.0,47,0.00,,,0.00,WUHU21623XXSP,2013-04-07 04:47:00,
2013-04-07 00:52:00,25.3,7.8,30.29,WSW,247,0.0,0.0,47,0.00,,,0.00,WUHU21623XXSP,2013-04-07 04:52:00,
2013-04-07 00:57:00,25.3,7.3,30.28,WSW,247,0.0,0.0,46,0.00,,,0.00,WUHU21623XXSP,2013-04-07 04:57:00,
2013-04-07 01:02:00,25.5,7.9,30.28,WSW,247,0.0,0.0,47,0.00,,,0.00,WUHU21623XXSP,2013-04-07 05:02:00,
2013-04-07 01:07:00,25.7,7.6,30.28,WSW,247,0.0,0.0,46,0.00,,,0.00,WUHU21623XXSP,2013-04-07 05:07:00,
2013-04-07 01:12:00,25.7,7.6,30.28,WSW,247,0.0,0.0,46,0.00,,,0.00,WUHU21623XXSP,2013-04-07 05:12:00,
2013-04-07 01:17:00,25.7,7.6,30.28,WSW,247,0.0,0.0,46,0.00,,,0.00,WUHU21623XXSP,2013-04-07 05:17:00,
2013-04-07 01:22:00,25.9,7.8,30.28,WSW,247,0.0,0.0,46,0.00,,,0.00,WUHU21623XXSP,2013-04-07 05:22:00,
2013-04-07 01:27:00,25.7,7.6,30.28,WSW,247,0.0,0.0,46,0.00,,,0.00,WUHU21623XXSP,2013-04-07 05:27:00,
2013-04-07 01:32:00,25.5,7.5,30.28,WSW,247,0.0,0.0,46,0.00,,,0.00,WUHU21623XXSP,2013-04-07 05:32:00,
2013-04-07 01:37:00,25.5,7.5,30.28,WSW,247,0.0,0.0,46,0.00,,,0.00,WUHU21623XXSP,2013-04-07 05:37:00,
2013-04-07 01:42:00,25.3,7.3,30.28,WSW,247,0.0,0.0,46,0.00,,,0.00,WUHU21623XXSP,2013-04-07 05:42:00,
2013-04-07 01:47:00,25.3,7.3,30.28,WSW,247,0.0,0.0,46,0.00,,,0.00,WUHU21623XXSP,2013-04-07 05:47:00,
2013-04-07 01:52:00,25.2,7.2,30.28,WSW,247,0.0,0.0,46,0.00,,,0.00,WUHU21623XXSP,2013-04-07 05:52:00,
2013-04-07 01:57:00,25.0,7.0,30.28,WSW,247,0.0,0.0,46,0.00,,,0.00,WUHU21623XXSP,2013-04-07 05:57:00,
2013-04-07 02:02:00,25.0,7.0,30.27,WSW,247,0.0,0.0,46,0.00,,,0.00,WUHU21623XXSP,2013-04-07 06:02:00,
2013-04-07 02:07:00,25.0,7.5,30.27,WSW,247,0.0,0.0,47,0.00,,,0.00,WUHU21623XXSP,2013-04-07 06:07:00,
2013-04-07 02:12:00,24.6,7.1,30.27,WSW,247,0.0,0.0,47,0.00,,,0.00,WUHU21623XXSP,2013-04-07 06:12:00,
2013-04-07 02:17:00,24.6,7.1,30.27,WSW,247,0.0,0.0,47,0.00,,,0.00,WUHU21623XXSP,2013-04-07 06:17:00,
2013-04-07 02:22:00,25.0,7.5,30.27,WSW,247,0.0,0.0,47,0.00,,,0.00,WUHU21623XXSP,2013-04-07 06:22:00,
2013-04-07 02:27:00,24.8,7.3,30.27,WSW,247,0.0,0.0,47,0.00,,,0.00,WUHU21623XXSP,2013-04-07 06:27:00,
2013-04-07 02:32:00,25.0,8.0,30.27,WSW,247,0.0,0.0,48,0.00,,,0.00,WUHU21623XXSP,2013-04-07 06:32:00,
2013-04-07 02:37:00,24.4,7.9,30.27,WSW,247,0.0,0.0,49,0.00,,,0.00,WUHU21623XXSP,2013-04-07 06:37:00,
2013-04-07 02:42:00,24.4,7.9,30.27,WSW,247,0.0,0.0,49,0.00,,,0.00,WUHU21623XXSP,2013-04-07 06:42:00,
2013-04-07 02:47:00,24.4,8.3,30.27,WSW,247,0.0,0.0,50,0.00,,,0.00,WUHU21623XXSP,2013-04-07 06:47:00,
2013-04-07 02:52:00,24.4,8.3,30.26,WSW,247,0.0,0.0,50,0.00,,,0.00,WUHU21623XXSP,2013-04-07 06:52:00,
2013-04-07 02:57:00,24.3,8.3,30.26,WSW,247,0.0,0.0,50,0.00,,,0.00,WUHU21623XXSP,2013-04-07 06:57:00,
2013-04-07 03:02:00,24.3,8.7,30.26,WSW,247,0.0,0.0,51,0.00,,,0.00,WUHU21623XXSP,2013-04-07 07:02:00,
2013-04-07 03:07:00,23.9,8.3,30.25,WSW,247,0.0,0.0,51,0.00,,,0.00,WUHU21623XXSP,2013-04-07 07:07:00,
2013-04-07 03:12:00,23.7,8.1,30.25,WSW,247,0.0,0.0,51,0.00,,,0.00,WUHU21623XXSP,2013-04-07 07:12:00,
2013-04-07 03:17:00,23.7,8.1,30.25,WSW,247,0.0,0.0,51,0.00,,,0.00,WUHU21623XXSP,2013-04-07 07:17:00,
2013-04-07 03:22:00,23.5,8.0,30.25,WSW,247,0.0,0.0,51,0.00,,,0.00,WUHU21623XXSP,2013-04-07 07:22:00,
2013-04-07 03:28:00,23.4,7.9,30.25,WSW,247,0.0,0.0,51,0.00,,,0.00,WUHU21623XXSP,2013-04-07 07:28:00,
2013-04-07 03:33:00,23.5,8.4,30.25,WSW,247,0.0,0.0,52,0.00,,,0.00,WUHU21623XXSP,2013-04-07 07:33:00,
2013-04-07 03:38:00,23.4,8.3,30.25,WSW,247,0.0,0.0,52,0.00,,,0.00,WUHU21623XXSP,2013-04-07 07:38:00,
2013-04-07 03:43:00,23.5,8.4,30.25,WSW,247,0.0,0.0,52,0.00,,,0.00,WUHU21623XXSP,2013-04-07 07:43:00,
2013-04-07 03:48:00,23.7,8.6,30.25,WSW,247,0.0,0.0,52,0.00,,,0.00,WUHU21623XXSP,2013-04-07 07:48:00,
2013-04-07 03:53:00,23.5,8.4,30.26,WSW,247,0.0,0.0,52,0.00,,,0.00,WUHU21623XXSP,2013-04-07 07:53:00,
2013-04-07 03:58:00,23.7,8.6,30.26,WSW,247,0.0,0.0,52,0.00,,,0.00,WUHU21623XXSP,2013-04-07 07:58:00,
2013-04-07 04:03:00,23.5,8.4,30.25,WSW,247,0.0,0.0,52,0.00,,,0.00,WUHU21623XXSP,2013-04-07 08:03:00,
2013-04-07 04:08:00,23.5,8.4,30.25,WSW,247,0.0,0.0,52,0.00,,,0.00,WUHU21623XXSP,2013-04-07 08:08:00,
2013-04-07 04:13:00,23.4,8.3,30.25,WSW,247,0.0,0.0,52,0.00,,,0.00,WUHU21623XXSP,2013-04-07 08:13:00,
2013-04-07 04:18:00,23.4,8.7,30.25,WSW,247,0.0,0.0,53,0.00,,,0.00,WUHU21623XXSP,2013-04-07 08:18:00,
2013-04-07 04:23:00,23.5,8.8,30.25,WSW,247,0.0,0.0,53,0.00,,,0.00,WUHU21623XXSP,2013-04-07 08:23:00,
2013-04-07 04:28:00,23.7,9.0,30.25,WSW,247,0.0,0.0,53,0.00,,,0.00,WUHU21623XXSP,2013-04-07 08:28:00,
2013-04-07 04:33:00,23.7,9.0,30.25,WSW,247,0.0,0.0,53,0.00,,,0.00,WUHU21623XXSP,2013-04-07 08:33:00,
2013-04-07 04:38:00,24.1,9.4,30.25,WSW,247,0.0,0.0,53,0.00,,,0.00,WUHU21623XXSP,2013-04-07 08:38:00,
2013-04-07 04:43:00,24.1,9.4,30.25,WSW,247,0.0,0.0,53,0.00,,,0.00,WUHU21623XXSP,2013-04-07 08:43:00,
2013-04-07 04:48:00,24.3,9.6,30.25,WSW,247,0.0,0.0,53,0.00,,,0.00,WUHU21623XXSP,2013-04-07 08:48:00,
2013-04-07 04:53:00,24.4,9.7,30.25,WSW,247,0.0,0.0,53,0.00,,,0.00,WUHU21623XXSP,2013-04-07 08:53:00,
2013-04-07 04:58:00,24.4,9.7,30.25,WSW,247,0.0,0.0,53,0.00,,,0.00,WUHU21623XXSP,2013-04-07 08:58:00,
2013-04-07 05:03:00,24.4,9.7,30.24,WSW,247,0.0,0.0,53,0.00,,,0.00,WUHU21623XXSP,2013-04-07 09:03:00,
2013-04-07 05:08:00,24.6,9.9,30.25,WSW,247,0.0,0.0,53,0.00,,,0.00,WUHU21623XXSP,2013-04-07 09:08:00,
2013-04-07 05:13:00,24.4,9.7,30.25,WSW,247,0.0,0.0,53,0.00,,,0.00,WUHU21623XXSP,2013-04-07 09:13:00,
2013-04-07 05:18:00,24.8,10.1,30.24,WSW,247,0.0,0.0,53,0.00,,,0.00,WUHU21623XXSP,2013-04-07 09:18:00,
2013-04-07 05:23:00,24.4,9.7,30.25,WSW,247,0.0,0.0,53,0.00,,,0.00,WUHU21623XXSP,2013-04-07 09:23:00,
2013-04-07 05:28:00,24.3,9.6,30.25,WSW,247,0.0,0.0,53,0.00,,,0.00,WUHU21623XXSP,2013-04-07 09:28:00,
2013-04-07 05:33:00,24.3,9.6,30.25,WSW,247,0.0,0.0,53,0.00,,,0.00,WUHU21623XXSP,2013-04-07 09:33:00,
2013-04-07 05:38:00,24.3,9.6,30.25,WSW,247,0.0,0.0,53,0.00,,,0.00,WUHU21623XXSP,2013-04-07 09:38:00,
2013-04-07 05:43:00,23.9,9.2,30.25,WSW,247,0.0,0.0,53,0.00,,,0.00,WUHU21623XXSP,2013-04-07 09:43:00,
2013-04-07 05:48:00,23.9,9.2,30.25,WSW,247,0.0,0.0,53,0.00,,,0.00,WUHU21623XXSP,2013-04-07 09:48:00,
2013-04-07 05:53:00,23.7,9.0,30.25,WSW,247,0.0,0.0,53,0.00,,,0.00,WUHU21623XXSP,2013-04-07 09:53:00,
2013-04-07 05:58:00,23.5,8.8,30.25,WSW,247,0.0,0.0,53,0.00,,,0.00,WUHU21623XXSP,2013-04-07 09:58:00,
2013-04-07 06:03:00,23.4,8.7,30.25,WSW,247,0.0,0.0,53,0.00,,,0.00,WUHU21623XXSP,2013-04-07 10:03:00,
2013-04-07 06:08:00,23.4,9.2,30.25,WSW,247,0.0,0.0,54,0.00,,,0.00,WUHU21623XXSP,2013-04-07 10:08:00,
2013-04-07 06:13:00,23.4,9.2,30.25,WSW,247,0.0,0.0,54,0.00,,,0.00,WUHU21623XXSP,2013-04-07 10:13:00,
2013-04-07 06:18:00,23.2,9.0,30.25,WSW,247,0.0,0.0,54,0.00,,,0.00,WUHU21623XXSP,2013-04-07 10:18:00,
2013-04-07 06:23:00,23.2,9.0,30.25,WSW,247,0.0,0.0,54,0.00,,,0.00,WUHU21623XXSP,2013-04-07 10:23:00,
2013-04-07 06:28:00,23.2,9.4,30.25,WSW,247,0.0,0.0,55,0.00,,,0.00,WUHU21623XXSP,2013-04-07 10:28:00,
2013-04-07 06:33:00,23.2,9.4,30.25,WSW,247,0.0,0.0,55,0.00,,,0.00,WUHU21623XXSP,2013-04-07 10:33:00,
2013-04-07 06:38:00,23.2,9.4,30.26,WSW,247,0.0,0.0,55,0.00,,,0.00,WUHU21623XXSP,2013-04-07 10:38:00,
2013-04-07 06:43:00,23.2,9.4,30.26,WSW,247,0.0,0.0,55,0.00,,,0.00,WUHU21623XXSP,2013-04-07 10:43:00,
2013-04-07 06:48:00,23.2,9.8,30.26,WSW,247,0.0,0.0,56,0.00,,,0.00,WUHU21623XXSP,2013-04-07 10:48:00,
2013-04-07 06:53:00,23.2,9.8,30.27,WSW,247,0.0,0.0,56,0.00,,,0.00,WUHU21623XXSP,2013-04-07 10:53:00,
2013-04-07 06:58:00,23.2,9.8,30.27,WSW,247,0.0,0.0,56,0.00,,,0.00,WUHU21623XXSP,2013-04-07 10:58:00,
2013-04-07 07:03:00,23.4,10.0,30.27,WSW,247,0.0,0.0,56,0.00,,,0.00,WUHU21623XXSP,2013-04-07 11:03:00,
2013-04-07 07:08:00,23.7,10.3,30.27,WSW,247,0.0,0.0,56,0.00,,,0.00,WUHU21623XXSP,2013-04-07 11:08:00,
2013-04-07 07:13:00,23.9,10.9,30.27,WSW,247,0.0,0.0,57,0.00,,,0.00,WUHU21623XXSP,2013-04-07 11:13:00,
2013-04-07 07:18:00,24.3,11.3,30.27,WSW,247,0.0,0.0,57,0.00,,,0.00,WUHU21623XXSP,2013-04-07 11:18:00,
2013-04-07 07:23:00,24.6,11.5,30.27,WSW,247,0.0,0.0,57,0.00,,,0.00,WUHU21623XXSP,2013-04-07 11:23:00,
2013-04-07 07:29:00,25.0,11.5,30.27,WSW,247,0.0,0.0,56,0.00,,,0.00,WUHU21623XXSP,2013-04-07 11:29:00,
2013-04-07 07:34:00,25.2,11.7,30.27,WSW,247,0.0,0.0,56,0.00,,,0.00,WUHU21623XXSP,2013-04-07 11:34:00,
2013-04-07 07:39:00,25.5,12.0,30.27,WSW,247,0.0,0.0,56,0.00,,,0.00,WUHU21623XXSP,2013-04-07 11:39:00,
2013-04-07 07:44:00,25.7,12.2,30.27,WSW,247,0.0,0.0,56,0.00,,,0.00,WUHU21623XXSP,2013-04-07 11:44:00,
2013-04-07 07:49:00,26.1,12.5,30.27,WSW,247,0.0,0.0,56,0.00,,,0.00,WUHU21623XXSP,2013-04-07 11:49:00,
2013-04-07 07:54:00,26.4,12.8,30.27,WSW,247,0.0,0.0,56,0.00,,,0.00,WUHU21623XXSP,2013-04-07 11:54:00,
2013-04-07 07:59:00,26.8,13.2,30.27,WSW,247,0.0,0.0,56,0.00,,,0.00,WUHU21623XXSP,2013-04-07 11:59:00,
2013-04-07 08:04:00,27.0,13.0,30.26,WSW,247,0.0,0.0,55,0.00,,,0.00,WUHU21623XXSP,2013-04-07 12:04:00,
2013-04-07 08:09:00,27.5,13.4,30.26,WSW,247,0.0,0.0,55,0.00,,,0.00,WUHU21623XXSP,2013-04-07 12:09:00,
2013-04-07 08:14:00,28.0,13.9,30.25,WSW,247,0.0,0.0,55,0.00,,,0.00,WUHU21623XXSP,2013-04-07 12:14:00,
2013-04-07 08:19:00,28.4,14.3,30.26,WSW,247,0.0,0.0,55,0.00,,,0.00,WUHU21623XXSP,2013-04-07 12:19:00,
2013-04-07 08:25:00,28.9,14.7,30.25,WSW,247,0.0,0.0,55,0.00,,,0.00,WUHU21623XXSP,2013-04-07 12:25:00,
2013-04-07 08:30:00,29.8,15.6,30.25,WSW,247,0.0,0.0,55,0.00,,,0.00,WUHU21623XXSP,2013-04-07 12:30:00,
2013-04-07 08:35:00,30.6,15.9,30.24,WSW,247,0.0,3.0,54,0.00,,,0.00,WUHU21623XXSP,2013-04-07 12:35:00,
2013-04-07 08:40:00,31.1,15.9,30.24,WSW,247,0.0,3.0,53,0.00,,,0.00,WUHU21623XXSP,2013-04-07 12:40:00,
2013-04-07 08:45:00,31.6,16.4,30.23,WSW,247,0.0,0.0,53,0.00,,,0.00,WUHU21623XXSP,2013-04-07 12:45:00,
2013-04-07 08:50:00,32.2,16.5,30.23,WSW,247,0.0,0.0,52,0.00,,,0.00,WUHU21623XXSP,2013-04-07 12:50:00,
2013-04-07 08:55:00,32.7,16.5,30.23,WSW,247,0.0,2.0,51,0.00,,,0.00,WUHU21623XXSP,2013-04-07 12:55:00,
2013-04-07 09:00:00,33.3,17.1,30.22,WSW,247,1.8,4.1,51,0.00,,,0.00,WUHU21623XXSP,2013-04-07 13:00:00,
2013-04-07 09:05:00,33.8,16.6,30.22,WSW,247,1.2,4.1,49,0.00,,,0.00,WUHU21623XXSP,2013-04-07 13:05:00,
2013-04-07 09:10:00,34.2,16.0,30.22,WSW,247,2.3,5.4,47,0.00,,,0.00,WUHU21623XXSP,2013-04-07 13:10:00,
2013-04-07 09:15:00,34.0,15.3,30.21,WSW,247,1.1,5.4,46,0.00,,,0.00,WUHU21623XXSP,2013-04-07 13:15:00,
2013-04-07 09:20:00,34.0,14.2,30.21,WSW,247,2.3,4.6,44,0.00,,,0.00,WUHU21623XXSP,2013-04-07 13:20:00,
2013-04-07 09:25:00,34.0,13.7,30.20,WSW,247,0.3,4.6,43,0.00,,,0.00,WUHU21623XXSP,2013-04-07 13:25:00,
2013-04-07 09:30:00,34.0,13.1,30.20,WSW,247,3.0,3.9,42,0.00,,,0.00,WUHU21623XXSP,2013-04-07 13:30:00,
2013-04-07 09:35:00,34.0,12.6,30.19,North,0,0.0,5.1,41,0.00,,,0.00,WUHU21623XXSP,2013-04-07 13:35:00,
2013-04-07 09:40:00,34.0,12.6,30.20,North,0,0.0,5.1,41,0.00,,,0.00,WUHU21623XXSP,2013-04-07 13:40:00,
2013-04-07 09:45:00,34.2,12.2,30.19,NNE,22,0.4,3.2,40,0.00,,,0.00,WUHU21623XXSP,2013-04-07 13:45:00,
2013-04-07 09:50:00,34.3,11.7,30.19,NNE,22,0.0,4.8,39,0.00,,,0.00,WUHU21623XXSP,2013-04-07 13:50:00,
2013-04-07 09:55:00,34.7,12.0,30.18,NNE,22,3.9,5.5,39,0.00,,,0.00,WUHU21623XXSP,2013-04-07 13:55:00,
2013-04-07 10:00:00,34.7,12.0,30.18,NNE,22,2.3,5.5,39,0.00,,,0.00,WUHU21623XXSP,2013-04-07 14:00:00,
2013-04-07 10:05:00,35.1,11.8,30.17,East,90,4.6,7.2,38,0.00,,,0.00,WUHU21623XXSP,2013-04-07 14:05:00,
2013-04-07 10:10:00,35.4,11.5,30.17,SSE,157,5.9,8.9,37,0.00,,,0.00,WUHU21623XXSP,2013-04-07 14:10:00,
2013-04-07 10:15:00,35.6,11.0,30.17,ENE,67,0.8,9.2,36,0.00,,,0.00,WUHU21623XXSP,2013-04-07 14:15:00,
2013-04-07 10:20:00,35.8,11.2,30.16,ENE,67,0.7,9.2,36,0.00,,,0.00,WUHU21623XXSP,2013-04-07 14:20:00,
2013-04-07 10:25:00,36.0,11.4,30.17,ENE,67,0.0,7.8,36,0.00,,,0.00,WUHU21623XXSP,2013-04-07 14:25:00,
2013-04-07 10:30:00,36.5,12.5,30.16,ENE,67,0.0,5.3,37,0.00,,,0.00,WUHU21623XXSP,2013-04-07 14:30:00,
2013-04-07 10:35:00,36.9,12.2,30.17,ENE,67,3.3,12.0,36,0.00,,,0.00,WUHU21623XXSP,2013-04-07 14:35:00,
2013-04-07 10:40:00,37.0,12.3,30.17,ENE,67,2.4,12.0,36,0.00,,,0.00,WUHU21623XXSP,2013-04-07 14:40:00,
2013-04-07 10:45:00,37.8,13.0,30.16,NE,45,5.9,9.6,36,0.00,,,0.00,WUHU21623XXSP,2013-04-07 14:45:00,
2013-04-07 10:50:00,38.3,13.4,30.16,NE,45,8.5,10.5,36,0.00,,,0.00,WUHU21623XXSP,2013-04-07 14:50:00,
2013-04-07 10:55:00,39.0,14.1,30.16,NE,45,2.2,10.5,36,0.00,,,0.00,WUHU21623XXSP,2013-04-07 14:55:00,
2013-04-07 11:00:00,39.4,13.8,30.16,SSE,157,4.6,9.7,35,0.00,,,0.00,WUHU21623XXSP,2013-04-07 15:00:00,
2013-04-07 11:06:00,39.6,12.6,30.15,ENE,67,5.4,10.5,33,0.00,,,0.00,WUHU21623XXSP,2013-04-07 15:06:00,
2013-04-07 11:11:00,39.7,12.0,30.15,SSE,157,5.2,10.5,32,0.00,,,0.00,WUHU21623XXSP,2013-04-07 15:11:00,
2013-04-07 11:16:00,40.1,10.2,30.15,ENE,67,5.3,9.7,29,0.00,,,0.00,WUHU21623XXSP,2013-04-07 15:16:00,
2013-04-07 11:21:00,40.3,10.3,30.14,SE,135,7.5,14.4,29,0.00,,,0.00,WUHU21623XXSP,2013-04-07 15:21:00,
2013-04-07 11:26:00,41.2,12.6,30.14,ENE,67,6.6,14.4,31,0.00,,,0.00,WUHU21623XXSP,2013-04-07 15:26:00,
2013-04-07 11:31:00,41.7,11.5,30.13,ENE,67,8.0,9.8,29,0.00,,,0.00,WUHU21623XXSP,2013-04-07 15:31:00,
2013-04-07 11:36:00,42.4,11.4,30.12,ENE,67,5.3,11.9,28,0.00,,,0.00,WUHU21623XXSP,2013-04-07 15:36:00,
2013-04-07 11:41:00,43.2,13.6,30.12,ENE,67,5.4,11.9,30,0.00,,,0.00,WUHU21623XXSP,2013-04-07 15:41:00,
2013-04-07 11:46:00,43.3,9.7,30.11,NE,45,5.3,13.2,25,0.00,,,0.00,WUHU21623XXSP,2013-04-07 15:46:00,
2013-04-07 11:51:00,44.2,14.5,30.11,NE,45,2.8,13.2,30,0.00,,,0.00,WUHU21623XXSP,2013-04-07 15:51:00,
2013-04-07 11:57:00,45.3,14.7,30.10,NE,45,4.5,9.4,29,0.00,,,0.00,WUHU21623XXSP,2013-04-07 15:57:00,
2013-04-07 12:02:00,45.9,7.0,30.10,NE,45,3.8,10.2,20,0.00,,,0.00,WUHU21623XXSP,2013-04-07 16:02:00,
2013-04-07 12:07:00,46.6,7.6,30.09,NE,45,5.3,11.2,20,0.00,,,0.00,WUHU21623XXSP,2013-04-07 16:07:00,
2013-04-07 12:12:00,47.3,8.2,30.09,ENE,67,4.2,11.2,20,0.00,,,0.00,WUHU21623XXSP,2013-04-07 16:12:00,
2013-04-07 12:17:00,48.4,9.1,30.09,NNE,22,4.8,9.7,20,0.00,,,0.00,WUHU21623XXSP,2013-04-07 16:17:00,
2013-04-07 12:22:00,48.7,9.3,30.08,NNW,337,3.5,15.5,20,0.00,,,0.00,WUHU21623XXSP,2013-04-07 16:22:00,
2013-04-07 12:24:00,48.9,9.5,30.08,WNW,293,0.0,15.5,20,0.00,,,0.00,WUHU21623XXSP,2013-04-07 16:24:00,
2013-04-07 12:27:00,49.3,19.7,30.09,NE,45,4.5,15.5,31,0.00,,,0.00,WUHU21623XXSP,2013-04-07 16:27:00,
2013-04-07 12:32:00,48.4,9.1,30.08,ENE,67,3.1,13.0,20,0.00,,,0.00,WUHU21623XXSP,2013-04-07 16:32:00,
2013-04-07 12:37:00,47.8,8.6,30.07,ENE,67,2.8,13.0,20,0.00,,,0.00,WUHU21623XXSP,2013-04-07 16:37:00,
2013-04-07 12:42:00,47.3,8.2,30.07,NE,45,9.6,13.8,20,0.00,,,0.00,WUHU21623XXSP,2013-04-07 16:42:00,
2013-04-07 12:48:00,47.3,8.2,30.06,NE,45,10.1,17.1,20,0.00,,,0.00,WUHU21623XXSP,2013-04-07 16:48:00,
2013-04-07 12:53:00,48.6,9.2,30.06,NE,45,1.6,17.1,20,0.00,,,0.00,WUHU21623XXSP,2013-04-07 16:53:00,
2013-04-07 12:58:00,49.3,16.5,30.05,NE,45,2.6,13.2,27,0.00,,,0.00,WUHU21623XXSP,2013-04-07 16:58:00,
2013-04-07 13:03:00,50.4,17.5,30.05,ENE,67,1.5,11.4,27,0.00,,,0.00,WUHU21623XXSP,2013-04-07 17:03:00,
2013-04-07 13:08:00,50.7,16.0,30.05,ENE,67,3.7,12.3,25,0.00,,,0.00,WUHU21623XXSP,2013-04-07 17:08:00,
2013-04-07 13:13:00,50.5,11.9,30.04,NE,45,9.7,12.4,21,0.00,,,0.00,WUHU21623XXSP,2013-04-07 17:13:00,
2013-04-07 13:18:00,50.2,10.6,30.05,ENE,67,2.7,15.9,20,0.00,,,0.00,WUHU21623XXSP,2013-04-07 17:18:00,
2013-04-07 13:23:00,50.5,12.9,30.05,ENE,67,4.9,15.9,22,0.00,,,0.00,WUHU21623XXSP,2013-04-07 17:23:00,
2013-04-07 13:24:00,50.5,12.9,30.05,ENE,68,0.0,0.0,22,0.00,,,0.00,WUHU21623XXSP,2013-04-07 17:24:00,
2013-04-07 13:28:00,50.5,11.9,30.05,ENE,67,1.9,11.9,21,0.00,,,0.00,WUHU21623XXSP,2013-04-07 17:28:00,
2013-04-07 13:33:00,50.4,10.7,30.04,North,0,3.7,11.9,20,0.00,,,0.00,WUHU21623XXSP,2013-04-07 17:33:00,
2013-04-07 13:38:00,50.5,11.9,30.03,NE,45,8.9,11.3,21,0.00,,,0.00,WUHU21623XXSP,2013-04-07 17:38:00,
2013-04-07 13:43:00,51.4,13.7,30.03,NE,45,5.5,10.8,22,0.00,,,0.00,WUHU21623XXSP,2013-04-07 17:43:00,
2013-04-07 13:48:00,52.5,14.6,30.02,WSW,247,5.7,18.7,22,0.00,,,0.00,WUHU21623XXSP,2013-04-07 17:48:00,
2013-04-07 13:53:00,53.2,14.2,30.02,WNW,292,4.2,18.7,21,0.00,,,0.00,WUHU21623XXSP,2013-04-07 17:53:00,
2013-04-07 13:58:00,53.8,13.6,30.02,ENE,67,7.4,15.0,20,0.00,,,0.00,WUHU21623XXSP,2013-04-07 17:58:00,
2013-04-07 14:03:00,54.3,14.0,30.01,ENE,67,4.5,15.0,20,0.00,,,0.00,WUHU21623XXSP,2013-04-07 18:03:00,
2013-04-07 14:08:00,55.0,14.6,30.01,ENE,67,1.3,13.7,20,0.00,,,0.00,WUHU21623XXSP,2013-04-07 18:08:00,
2013-04-07 14:13:00,55.6,15.1,30.00,NE,45,10.6,13.7,20,0.00,,,0.00,WUHU21623XXSP,2013-04-07 18:13:00,
2013-04-07 14:18:00,55.8,15.2,30.00,NE,45,7.2,13.4,20,0.00,,,0.00,WUHU21623XXSP,2013-04-07 18:18:00,
2013-04-07 14:23:00,56.1,15.5,30.00,NE,45,7.4,18.2,20,0.00,,,0.00,WUHU21623XXSP,2013-04-07 18:23:00,
2013-04-07 14:24:00,56.1,15.5,30.00,ESE,113,0.0,0.0,20,0.00,,,0.00,WUHU21623XXSP,2013-04-07 18:24:00,
2013-04-07 14:28:00,55.9,15.3,29.99,NE,45,10.5,18.2,20,0.00,,,0.00,WUHU21623XXSP,2013-04-07 18:28:00,
2013-04-07 14:33:00,56.1,15.5,29.99,ENE,67,6.1,13.1,20,0.00,,,0.00,WUHU21623XXSP,2013-04-07 18:33:00,
2013-04-07 14:38:00,56.3,15.7,29.98,NNW,337,6.0,13.1,20,0.00,,,0.00,WUHU21623XXSP,2013-04-07 18:38:00,
2013-04-07 14:43:00,56.3,15.7,29.98,ENE,67,9.5,12.2,20,0.00,,,0.00,WUHU21623XXSP,2013-04-07 18:43:00,
2013-04-07 14:48:00,56.7,16.0,29.98,ENE,67,8.5,14.1,20,0.00,,,0.00,WUHU21623XXSP,2013-04-07 18:48:00,
2013-04-07 14:53:00,56.8,16.1,29.98,WNW,292,7.0,17.0,20,0.00,,,0.00,WUHU21623XXSP,2013-04-07 18:53:00,
2013-04-07 14:58:00,57.6,16.7,29.97,SSE,157,4.1,17.0,20,0.00,,,0.00,WUHU21623XXSP,2013-04-07 18:58:00,
2013-04-07 15:03:00,57.6,16.7,29.97,NE,45,9.7,15.4,20,0.00,,,0.00,WUHU21623XXSP,2013-04-07 19:03:00,
2013-04-07 15:08:00,57.7,16.8,29.97,West,270,5.4,18.8,20,0.00,,,0.00,WUHU21623XXSP,2013-04-07 19:08:00,
2013-04-07 15:13:00,58.3,17.3,29.96,ENE,67,3.8,18.8,20,0.00,,,0.00,WUHU21623XXSP,2013-04-07 19:13:00,
2013-04-07 15:18:00,58.5,17.5,29.95,WNW,292,4.8,14.9,20,0.00,,,0.00,WUHU21623XXSP,2013-04-07 19:18:00,
2013-04-07 15:23:00,58.6,17.6,29.94,ESE,112,5.8,14.9,20,0.00,,,0.00,WUHU21623XXSP,2013-04-07 19:23:00,
2013-04-07 15:24:00,58.5,17.5,29.94,NW,315,0.0,0.0,20,0.00,,,0.00,WUHU21623XXSP,2013-04-07 19:24:00,
2013-04-07 15:28:00,58.5,17.5,29.94,West,270,6.7,12.4,20,0.00,,,0.00,WUHU21623XXSP,2013-04-07 19:28:00,
2013-04-07 15:33:00,57.9,17.0,29.94,North,0,4.1,14.1,20,0.00,,,0.00,WUHU21623XXSP,2013-04-07 19:33:00,
2013-04-07 15:38:00,57.6,16.7,29.94,West,270,4.9,14.1,20,0.00,,,0.00,WUHU21623XXSP,2013-04-07 19:38:00,
2013-04-07 15:43:00,57.6,16.7,29.92,NNE,22,1.3,12.1,20,0.00,,,0.00,WUHU21623XXSP,2013-04-07 19:43:00,
2013-04-07 15:48:00,57.2,16.4,29.91,ENE,67,8.5,10.3,20,0.00,,,0.00,WUHU21623XXSP,2013-04-07 19:48:00,
2013-04-07 15:53:00,56.7,16.0,29.91,NE,45,4.4,17.0,20,0.00,,,0.00,WUHU21623XXSP,2013-04-07 19:53:00,
2013-04-07 15:58:00,56.3,15.7,29.90,NW,315,13.4,19.8,20,0.00,,,0.00,WUHU21623XXSP,2013-04-07 19:58:00,
2013-04-07 16:03:00,56.1,15.5,29.91,East,90,7.1,19.8,20,0.00,,,0.00,WUHU21623XXSP,2013-04-07 20:03:00,
2013-04-07 16:09:00,55.6,15.1,29.91,ENE,67,4.3,22.9,20,0.00,,,0.00,WUHU21623XXSP,2013-04-07 20:09:00,
2013-04-07 16:14:00,55.6,15.1,29.90,ENE,67,6.4,22.9,20,0.00,,,0.00,WUHU21623XXSP,2013-04-07 20:14:00,
2013-04-07 16:19:00,55.6,15.1,29.91,North,0,8.4,22.2,20,0.00,,,0.00,WUHU21623XXSP,2013-04-07 20:19:00,
2013-04-07 16:24:00,55.6,15.1,29.92,East,90,1.4,22.2,20,0.00,,,0.00,WUHU21623XXSP,2013-04-07 20:24:00,
2013-04-07 16:29:00,55.9,15.3,29.92,ESE,112,5.6,16.2,20,0.00,,,0.00,WUHU21623XXSP,2013-04-07 20:29:00,
2013-04-07 16:34:00,56.3,16.8,29.92,WNW,292,5.6,11.9,21,0.00,,,0.00,WUHU21623XXSP,2013-04-07 20:34:00,
2013-04-07 16:39:00,57.4,17.7,29.91,ESE,112,4.3,12.0,21,0.00,,,0.00,WUHU21623XXSP,2013-04-07 20:39:00,
2013-04-07 16:44:00,57.6,16.7,29.91,ENE,67,6.3,17.6,20,0.00,,,0.00,WUHU21623XXSP,2013-04-07 20:44:00,
2013-04-07 16:49:00,57.9,18.1,29.90,ENE,67,4.0,17.6,21,0.00,,,0.00,WUHU21623XXSP,2013-04-07 20:49:00,
2013-04-07 16:59:00,57.9,18.1,29.91,NE,45,8.3,20.0,21,0.00,,,0.00,WUHU21623XXSP,2013-04-07 20:59:00,
2013-04-07 17:04:00,58.1,17.1,29.91,East,90,6.2,20.0,20,0.00,,,0.00,WUHU21623XXSP,2013-04-07 21:04:00,
2013-04-07 17:09:00,57.6,17.8,29.91,West,270,1.0,12.2,21,0.00,,,0.00,WUHU21623XXSP,2013-04-07 21:09:00,
2013-04-07 17:14:00,57.4,18.7,29.91,NNW,337,7.4,17.7,22,0.00,,,0.00,WUHU21623XXSP,2013-04-07 21:14:00,
2013-04-07 17:19:00,57.0,18.4,29.93,NW,315,7.5,17.7,22,0.00,,,0.00,WUHU21623XXSP,2013-04-07 21:19:00,
2013-04-07 17:24:00,56.5,18.0,29.93,WSW,248,0.0,0.0,22,0.00,,,0.00,WUHU21623XXSP,2013-04-07 21:24:00,
2013-04-07 17:25:00,56.5,19.0,29.94,ENE,67,5.2,17.5,23,0.00,,,0.00,WUHU21623XXSP,2013-04-07 21:25:00,
2013-04-07 17:30:00,56.1,20.6,29.93,North,0,8.1,13.4,25,0.00,,,0.00,WUHU21623XXSP,2013-04-07 21:30:00,
2013-04-07 17:35:00,55.6,20.2,29.93,SW,225,5.8,13.4,25,0.00,,,0.00,WUHU21623XXSP,2013-04-07 21:35:00,
2013-04-07 17:40:00,55.2,20.7,29.93,SE,135,1.1,10.0,26,0.00,,,0.00,WUHU21623XXSP,2013-04-07 21:40:00,
2013-04-07 17:45:00,55.0,21.4,29.94,NE,45,5.0,10.0,27,0.00,,,0.00,WUHU21623XXSP,2013-04-07 21:45:00,
2013-04-07 17:50:00,54.5,21.8,29.93,WSW,247,2.2,9.7,28,0.00,,,0.00,WUHU21623XXSP,2013-04-07 21:50:00,
2013-04-07 17:55:00,54.3,22.5,29.93,West,270,3.3,10.4,29,0.00,,,0.00,WUHU21623XXSP,2013-04-07 21:55:00,
2013-04-07 18:00:00,54.3,23.3,29.93,West,270,2.3,11.3,30,0.00,,,0.00,WUHU21623XXSP,2013-04-07 22:00:00,
2013-04-07 18:05:00,54.1,23.9,29.92,NE,45,7.1,12.6,31,0.00,,,0.00,WUHU21623XXSP,2013-04-07 22:05:00,
2013-04-07 18:10:00,54.3,24.1,29.92,SSE,157,5.7,12.6,31,0.00,,,0.00,WUHU21623XXSP,2013-04-07 22:10:00,
2013-04-07 18:15:00,54.0,24.6,29.92,NE,45,0.0,10.6,32,0.00,,,0.00,WUHU21623XXSP,2013-04-07 22:15:00,
2013-04-07 18:20:00,54.0,24.6,29.92,ENE,67,3.5,12.8,32,0.00,,,0.00,WUHU21623XXSP,2013-04-07 22:20:00,
2013-04-07 18:24:00,54.0,24.6,29.92,NE,45,0.0,0.0,32,0.00,,,0.00,WUHU21623XXSP,2013-04-07 22:24:00,
2013-04-07 18:25:00,54.0,24.6,29.92,NW,315,2.7,12.8,32,0.00,,,0.00,WUHU21623XXSP,2013-04-07 22:25:00,
2013-04-07 18:30:00,54.0,24.6,29.93,NE,45,0.7,9.5,32,0.00,,,0.00,WUHU21623XXSP,2013-04-07 22:30:00,
2013-04-07 18:35:00,54.0,25.3,29.93,ENE,67,7.1,16.2,33,0.00,,,0.00,WUHU21623XXSP,2013-04-07 22:35:00,
2013-04-07 18:40:00,53.8,25.1,29.93,NNE,22,0.0,19.9,33,0.00,,,0.00,WUHU21623XXSP,2013-04-07 22:40:00,
2013-04-07 18:45:00,53.6,24.9,29.93,NNE,22,0.0,19.9,33,0.00,,,0.00,WUHU21623XXSP,2013-04-07 22:45:00,
2013-04-07 18:50:00,53.6,24.9,29.92,ENE,67,2.1,14.1,33,0.00,,,0.00,WUHU21623XXSP,2013-04-07 22:50:00,
2013-04-07 18:55:00,53.4,24.8,29.92,ENE,67,4.7,9.9,33,0.00,,,0.00,WUHU21623XXSP,2013-04-07 22:55:00,
2013-04-07 19:00:00,53.1,24.5,29.92,NNE,22,4.1,10.4,33,0.00,,,0.00,WUHU21623XXSP,2013-04-07 23:00:00,
2013-04-07 19:05:00,52.7,24.2,29.92,NE,45,1.0,10.4,33,0.00,,,0.00,WUHU21623XXSP,2013-04-07 23:05:00,
2013-04-07 19:10:00,52.2,25.1,29.92,NE,45,2.8,11.1,35,0.00,,,0.00,WUHU21623XXSP,2013-04-07 23:10:00,
2013-04-07 19:15:00,52.0,25.0,29.92,NNW,337,4.0,11.1,35,0.00,,,0.00,WUHU21623XXSP,2013-04-07 23:15:00,
2013-04-07 19:20:00,51.6,25.3,29.92,NE,45,4.8,10.6,36,0.00,,,0.00,WUHU21623XXSP,2013-04-07 23:20:00,
2013-04-07 19:24:00,51.6,25.3,29.92,ENE,68,0.0,0.0,36,0.00,,,0.00,WUHU21623XXSP,2013-04-07 23:24:00,
2013-04-07 19:25:00,51.4,25.1,29.92,NE,45,3.9,9.9,36,0.00,,,0.00,WUHU21623XXSP,2013-04-07 23:25:00,
2013-04-07 19:30:00,51.3,25.0,29.93,East,90,8.7,14.8,36,0.00,,,0.00,WUHU21623XXSP,2013-04-07 23:30:00,
2013-04-07 19:35:00,51.1,25.5,29.92,ENE,67,0.0,14.8,37,0.00,,,0.00,WUHU21623XXSP,2013-04-07 23:35:00,
2013-04-07 19:40:00,50.9,25.3,29.92,ENE,67,0.0,10.5,37,0.00,,,0.00,WUHU21623XXSP,2013-04-07 23:40:00,
2013-04-07 19:45:00,50.7,25.8,29.92,ENE,67,0.0,10.2,38,0.00,,,0.00,WUHU21623XXSP,2013-04-07 23:45:00,
2013-04-07 19:50:00,50.4,26.2,29.92,NE,45,0.6,8.2,39,0.00,,,0.00,WUHU21623XXSP,2013-04-07 23:50:00,
2013-04-07 19:55:00,50.2,26.0,29.92,NE,45,2.9,8.2,39,0.00,,,0.00,WUHU21623XXSP,2013-04-07 23:55:00,
2013-04-07 20:00:00,50.2,26.6,29.93,NE,45,7.6,12.6,40,0.00,,,0.00,WUHU21623XXSP,2013-04-08 00:00:00,
2013-04-07 20:05:00,50.0,26.4,29.93,ENE,67,0.0,12.6,40,0.00,,,0.00,WUHU21623XXSP,2013-04-08 00:05:00,
2013-04-07 20:10:00,49.5,26.6,29.93,ENE,67,0.0,9.9,41,0.00,,,0.00,WUHU21623XXSP,2013-04-08 00:10:00,
2013-04-07 20:15:00,49.3,26.4,29.94,ENE,67,1.6,8.5,41,0.00,,,0.00,WUHU21623XXSP,2013-04-08 00:15:00,
2013-04-07 20:20:00,48.9,26.0,29.93,ENE,67,2.0,8.5,41,0.00,,,0.00,WUHU21623XXSP,2013-04-08 00:20:00,
2013-04-07 20:24:00,48.7,25.9,29.93,ENE,68,0.0,0.0,41,0.00,,,0.00,WUHU21623XXSP,2013-04-08 00:24:00,
2013-04-07 20:25:00,48.6,25.8,29.94,ENE,67,0.0,5.3,41,0.00,,,0.00,WUHU21623XXSP,2013-04-08 00:25:00,
2013-04-07 20:31:00,48.4,25.6,29.94,NE,45,2.2,8.5,41,0.00,,,0.00,WUHU21623XXSP,2013-04-08 00:31:00,
2013-04-07 20:36:00,47.8,25.6,29.94,ENE,67,0.0,8.5,42,0.00,,,0.00,WUHU21623XXSP,2013-04-08 00:36:00,
2013-04-07 20:41:00,47.8,25.6,29.94,ENE,67,0.0,6.6,42,0.00,,,0.00,WUHU21623XXSP,2013-04-08 00:41:00,
2013-04-07 20:46:00,47.7,26.1,29.94,ENE,67,0.9,3.0,43,0.00,,,0.00,WUHU21623XXSP,2013-04-08 00:46:00,
2013-04-07 20:51:00,47.7,26.7,29.94,ENE,67,1.8,5.9,44,0.00,,,0.00,WUHU21623XXSP,2013-04-08 00:51:00,
2013-04-07 20:56:00,47.3,26.3,29.93,ENE,67,3.3,6.0,44,0.00,,,0.00,WUHU21623XXSP,2013-04-08 00:56:00,
2013-04-07 21:01:00,47.3,26.3,29.94,ENE,67,3.9,8.7,44,0.00,,,0.00,WUHU21623XXSP,2013-04-08 01:01:00,
2013-04-07 21:07:00,47.1,26.7,29.94,ENE,67,3.0,9.1,45,0.00,,,0.00,WUHU21623XXSP,2013-04-08 01:07:00,
2013-04-07 21:12:00,46.8,26.5,29.94,ENE,67,2.1,9.1,45,0.00,,,0.00,WUHU21623XXSP,2013-04-08 01:12:00,
2013-04-07 21:17:00,46.8,26.5,29.94,East,90,3.3,10.2,45,0.00,,,0.00,WUHU21623XXSP,2013-04-08 01:17:00,
2013-04-07 21:22:00,46.6,26.8,29.94,NE,45,4.9,10.2,46,0.00,,,0.00,WUHU21623XXSP,2013-04-08 01:22:00,
2013-04-07 21:24:00,46.6,26.8,29.93,NNE,23,0.0,0.0,46,0.00,,,0.00,WUHU21623XXSP,2013-04-08 01:24:00,
2013-04-07 21:27:00,46.4,26.6,29.93,NE,45,2.4,7.5,46,0.00,,,0.00,WUHU21623XXSP,2013-04-08 01:27:00,
2013-04-07 21:32:00,46.4,26.6,29.94,NE,45,1.6,7.5,46,0.00,,,0.00,WUHU21623XXSP,2013-04-08 01:32:00,
2013-04-07 21:37:00,46.0,26.8,29.94,ENE,67,4.1,6.9,47,0.00,,,0.00,WUHU21623XXSP,2013-04-08 01:37:00,
2013-04-07 21:42:00,46.0,26.8,29.93,ENE,67,4.9,8.0,47,0.00,,,0.00,WUHU21623XXSP,2013-04-08 01:42:00,
2013-04-07 21:47:00,45.7,26.5,29.92,NE,45,2.8,8.0,47,0.00,,,0.00,WUHU21623XXSP,2013-04-08 01:47:00,
2013-04-07 21:52:00,45.9,27.2,29.93,NE,45,2.6,8.0,48,0.00,,,0.00,WUHU21623XXSP,2013-04-08 01:52:00,
2013-04-07 21:57:00,45.7,27.6,29.93,NE,45,2.5,8.0,49,0.00,,,0.00,WUHU21623XXSP,2013-04-08 01:57:00,
2013-04-07 22:02:00,45.5,27.4,29.94,NNE,22,0.0,7.5,49,0.00,,,0.00,WUHU21623XXSP,2013-04-08 02:02:00,
2013-04-07 22:07:00,45.3,27.2,29.94,NE,45,4.0,7.5,49,0.00,,,0.00,WUHU21623XXSP,2013-04-08 02:07:00,
2013-04-07 22:12:00,45.0,27.4,29.94,NE,45,1.6,5.1,50,0.00,,,0.00,WUHU21623XXSP,2013-04-08 02:12:00,
2013-04-07 22:17:00,45.0,27.4,29.93,ENE,67,2.0,7.2,50,0.00,,,0.00,WUHU21623XXSP,2013-04-08 02:17:00,
2013-04-07 22:22:00,45.0,27.4,29.94,East,90,2.7,7.2,50,0.00,,,0.00,WUHU21623XXSP,2013-04-08 02:22:00,
2013-04-07 22:24:00,45.1,28.0,29.93,NE,45,0.0,0.0,51,0.00,,,0.00,WUHU21623XXSP,2013-04-08 02:24:00,
2013-04-07 22:27:00,45.0,27.9,29.94,NNE,22,2.4,5.3,51,0.00,,,0.00,WUHU21623XXSP,2013-04-08 02:27:00,
2013-04-07 22:32:00,45.0,27.9,29.93,NE,45,3.3,7.1,51,0.00,,,0.00,WUHU21623XXSP,2013-04-08 02:32:00,
2013-04-07 22:38:00,45.0,28.4,29.93,ENE,67,2.5,7.5,52,0.00,,,0.00,WUHU21623XXSP,2013-04-08 02:38:00,
2013-04-07 22:43:00,44.8,28.2,29.93,ENE,67,2.8,7.5,52,0.00,,,0.00,WUHU21623XXSP,2013-04-08 02:43:00,
2013-04-07 22:49:00,44.8,28.7,29.93,NE,45,2.5,9.0,53,0.00,,,0.00,WUHU21623XXSP,2013-04-08 02:49:00,
2013-04-07 22:54:00,44.8,28.7,29.92,NE,45,1.6,9.0,53,0.00,,,0.00,WUHU21623XXSP,2013-04-08 02:54:00,
2013-04-07 22:59:00,44.4,28.3,29.93,ENE,67,0.0,9.0,53,0.00,,,0.00,WUHU21623XXSP,2013-04-08 02:59:00,
2013-04-07 23:04:00,44.6,29.0,29.93,NE,45,2.4,5.8,54,0.00,,,0.00,WUHU21623XXSP,2013-04-08 03:04:00,
2013-04-07 23:09:00,44.8,29.2,29.93,ENE,67,0.0,5.8,54,0.00,,,0.00,WUHU21623XXSP,2013-04-08 03:09:00,
2013-04-07 23:14:00,44.8,29.2,29.93,ENE,67,0.0,5.5,54,0.00,,,0.00,WUHU21623XXSP,2013-04-08 03:14:00,
2013-04-07 23:20:00,44.2,28.6,29.93,WSW,247,0.0,4.9,54,0.00,,,0.00,WUHU21623XXSP,2013-04-08 03:20:00,
2013-04-07 23:24:00,43.3,27.8,29.93,WSW,248,0.0,0.0,54,0.00,,,0.00,WUHU21623XXSP,2013-04-08 03:24:00,
2013-04-07 23:25:00,43.2,27.7,29.93,WSW,247,0.0,4.6,54,0.00,,,0.00,WUHU21623XXSP,2013-04-08 03:25:00,
2013-04-07 23:30:00,42.6,27.1,29.93,WSW,247,0.0,4.6,54,0.00,,,0.00,WUHU21623XXSP,2013-04-08 03:30:00,
2013-04-07 23:35:00,42.3,27.3,29.92,WSW,247,0.0,0.0,55,0.00,,,0.00,WUHU21623XXSP,2013-04-08 03:35:00,
2013-04-07 23:40:00,41.9,26.9,29.92,WSW,247,0.0,0.0,55,0.00,,,0.00,WUHU21623XXSP,2013-04-08 03:40:00,
2013-04-07 23:45:00,41.7,27.6,29.93,WSW,247,0.0,0.0,57,0.00,,,0.00,WUHU21623XXSP,2013-04-08 03:45:00,
2013-04-07 23:50:00,41.7,27.6,29.93,WSW,247,0.0,0.0,57,0.00,,,0.00,WUHU21623XXSP,2013-04-08 03:50:00,
2013-04-07 23:55:00,41.9,28.2,29.92,WSW,247,0.0,0.0,58,0.00,,,0.00,WUHU21623XXSP,2013-04-08 03:55:00,